Time;durP1;ratioP1;P1;durP2;ratioP2;P2;SDS_P1;SDS_P2;PMS_P1;PMS_P2;Temp;Humidity;BMP_temperature;BMP_pressure;BME280_temperature;BME280_humidity;BME280_pressure;Samples;Min_cycle;Max_cycle;Signal;HPM_P1;HPM_P2
2023/08/22 00:00:34;;;;;;;9.52;4.50;;;;;;;18.65;93.42;101994.13;5097717;28;20103;-52
2023/08/22 00:03:00;;;;;;;9.13;4.90;;;;;;;18.63;92.98;101984.47;5093970;28;20032;-54
2023/08/22 00:05:25;;;;;;;6.38;4.25;;;;;;;18.59;94.07;101983.91;5101389;28;20617;-52
2023/08/22 00:07:50;;;;;;;9.10;4.97;;;;;;;18.58;94.43;101990.28;5099897;28;20026;-54
2023/08/22 00:10:16;;;;;;;6.25;4.07;;;;;;;18.62;94.16;101990.88;5102254;28;20366;-51
2023/08/22 00:12:43;;;;;;;7.10;4.60;;;;;;;18.64;93.69;101994.25;5093556;28;20036;-50
2023/08/22 00:15:10;;;;;;;7.50;4.22;;;;;;;18.58;94.61;101995.66;5096466;28;20099;-51
2023/08/22 00:17:40;;;;;;;4.30;3.83;;;;;;;18.58;94.38;101998.34;5099382;28;20036;-51
2023/08/22 00:20:08;;;;;;;7.07;4.32;;;;;;;18.57;94.18;101988.59;5100260;28;20023;-51
2023/08/22 00:22:34;;;;;;;7.35;4.32;;;;;;;18.56;93.96;101980.66;5098772;28;20054;-51
2023/08/22 00:24:59;;;;;;;9.75;4.55;;;;;;;18.59;93.93;101989.28;5098281;28;20020;-52
2023/08/22 00:27:24;;;;;;;8.32;4.30;;;;;;;18.61;94.16;101991.84;5100118;28;20028;-51
2023/08/22 00:29:50;;;;;;;5.35;4.38;;;;;;;18.60;94.10;101988.31;5095655;28;20112;-53
2023/08/22 00:32:15;;;;;;;7.50;4.37;;;;;;;18.59;94.17;101991.97;5102119;28;20033;-52
2023/08/22 00:34:40;;;;;;;7.57;4.78;;;;;;;18.49;94.56;101980.38;5098241;28;20324;-52
2023/08/22 00:37:06;;;;;;;8.63;4.60;;;;;;;18.53;94.05;101991.69;5101236;28;20067;-51
2023/08/22 00:39:32;;;;;;;8.38;4.60;;;;;;;18.52;94.05;101988.19;5100493;28;20462;-53
2023/08/22 00:41:58;;;;;;;6.90;4.32;;;;;;;18.53;94.60;101980.94;5101500;28;20024;-54
2023/08/22 00:44:23;;;;;;;10.07;4.93;;;;;;;18.49;94.66;101981.22;5096140;28;20478;-53
2023/08/22 00:46:49;;;;;;;7.03;4.65;;;;;;;18.52;94.78;101981.91;5096625;28;20381;-53
2023/08/22 00:49:14;;;;;;;9.00;4.88;;;;;;;18.49;95.23;101985.75;5098948;28;20051;-52
2023/08/22 00:51:40;;;;;;;10.48;4.80;;;;;;;18.49;94.74;101980.38;5090485;28;20039;-53
2023/08/22 00:54:06;;;;;;;8.45;4.53;;;;;;;18.36;95.33;101963.69;5102951;28;20024;-52
2023/08/22 00:56:34;;;;;;;7.22;4.30;;;;;;;18.42;94.80;101969.34;5099278;28;20028;-51
2023/08/22 00:59:01;;;;;;;8.17;4.83;;;;;;;18.38;95.16;101972.44;5094744;28;20031;-52
2023/08/22 01:01:27;;;;;;;7.13;4.97;;;;;;;18.37;95.65;101968.03;5100085;28;20281;-52
2023/08/22 01:03:52;;;;;;;9.15;4.93;;;;;;;18.38;95.44;101967.06;5103439;28;20020;-55
2023/08/22 01:06:27;;;;;;;8.45;4.95;;;;;;;18.31;95.95;101964.09;5101284;28;20024;-52
2023/08/22 01:09:01;;;;;;;6.63;4.40;;;;;;;18.30;95.38;101960.56;5101685;28;20103;-53
2023/08/22 01:11:34;;;;;;;8.85;4.80;;;;;;;18.25;96.72;101967.34;5099140;28;20027;-53
2023/08/22 01:14:04;;;;;;;9.85;4.90;;;;;;;18.27;96.69;101970.75;5101357;28;20027;-55
2023/08/22 01:16:30;;;;;;;5.72;4.80;;;;;;;18.23;96.25;101970.16;5105202;28;20027;-54
2023/08/22 01:18:56;;;;;;;5.75;4.85;;;;;;;18.22;96.45;101973.00;5104269;28;20031;-54
2023/08/22 01:21:22;;;;;;;10.70;4.93;;;;;;;18.18;96.44;101977.81;5102340;28;20024;-52
2023/08/22 01:23:47;;;;;;;7.75;5.07;;;;;;;18.18;96.16;101969.75;5106244;28;20051;-52
2023/08/22 01:26:13;;;;;;;9.93;4.80;;;;;;;18.12;96.30;101971.16;5102715;28;20044;-52
2023/08/22 01:28:55;;;;;;;8.18;5.03;;;;;;;18.12;96.36;101970.31;5098384;28;20094;-52
2023/08/22 01:31:28;;;;;;;8.23;4.63;;;;;;;18.04;97.24;101960.25;5100230;28;20097;-54
2023/08/22 01:34:17;;;;;;;9.75;5.30;;;;;;;18.12;96.52;101965.78;5100491;28;20324;-52
2023/08/22 01:36:45;;;;;;;6.88;4.57;;;;;;;18.12;97.42;101951.50;5104621;28;20035;-52
2023/08/22 01:39:14;;;;;;;6.90;4.97;;;;;;;18.10;97.76;101951.63;5105663;28;20584;-52
2023/08/22 01:41:39;;;;;;;6.88;4.60;;;;;;;18.11;97.92;101958.69;5103089;28;20110;-54
2023/08/22 01:44:04;;;;;;;9.38;5.10;;;;;;;18.06;98.04;101960.94;5096754;28;20111;-51
2023/08/22 01:46:30;;;;;;;6.93;4.90;;;;;;;18.02;98.39;101962.22;5097956;28;20031;-54
2023/08/22 01:48:55;;;;;;;6.90;4.50;;;;;;;18.01;98.71;101962.38;5101454;28;20036;-52
2023/08/22 01:51:21;;;;;;;8.05;4.60;;;;;;;17.97;98.04;101951.06;5101610;28;20043;-52
2023/08/22 01:53:46;;;;;;;4.68;4.05;;;;;;;17.97;98.67;101953.75;5102253;28;20042;-51
2023/08/22 01:56:11;;;;;;;7.22;4.45;;;;;;;17.96;97.80;101954.72;5105612;28;20055;-53
2023/08/22 01:58:37;;;;;;;6.55;4.07;;;;;;;17.98;98.81;101955.41;5103607;28;20024;-52
2023/08/22 02:01:12;;;;;;;7.15;4.45;;;;;;;17.96;99.26;101951.19;5103044;28;20492;-51
2023/08/22 02:03:42;;;;;;;9.85;4.68;;;;;;;17.98;99.13;101950.03;5099071;28;20485;-51
2023/08/22 02:06:08;;;;;;;8.68;4.47;;;;;;;18.00;99.39;101947.22;5103796;28;20040;-51
2023/08/22 02:08:33;;;;;;;10.68;4.72;;;;;;;17.99;98.75;101943.69;5097661;28;20031;-54
2023/08/22 02:10:58;;;;;;;7.85;4.28;;;;;;;17.97;98.83;101948.38;5095861;28;20019;-51
2023/08/22 02:13:24;;;;;;;8.07;4.45;;;;;;;17.96;99.17;101937.75;5099811;28;20097;-53
2023/08/22 02:15:49;;;;;;;7.32;3.97;;;;;;;17.92;98.09;101943.41;5103472;28;20489;-52
2023/08/22 02:18:15;;;;;;;7.95;4.45;;;;;;;17.92;99.36;101943.41;5103270;28;20020;-50
2023/08/22 02:20:41;;;;;;;5.85;4.90;;;;;;;17.88;99.33;101939.28;5105224;28;20168;-52
2023/08/22 02:23:06;;;;;;;8.50;4.82;;;;;;;17.88;99.68;101941.13;5103180;28;20474;-51
2023/08/22 02:25:32;;;;;;;8.70;4.32;;;;;;;17.88;99.41;101941.13;5101848;28;20031;-51
2023/08/22 02:27:58;;;;;;;6.43;4.28;;;;;;;17.87;99.80;101936.72;5102912;28;20027;-54
2023/08/22 02:30:23;;;;;;;8.20;4.65;;;;;;;17.87;99.58;101936.72;5099063;28;20028;-53
2023/08/22 02:32:49;;;;;;;7.38;5.38;;;;;;;17.85;100.00;101930.59;5102718;28;20184;-51
2023/08/22 02:35:14;;;;;;;7.03;4.88;;;;;;;17.84;100.00;101929.78;5098848;28;20103;-56
2023/08/22 02:37:39;;;;;;;6.75;4.57;;;;;;;17.89;99.52;101935.59;5103373;28;20036;-51
2023/08/22 02:40:08;;;;;;;9.43;4.95;;;;;;;17.86;100.00;101926.94;5098439;28;20023;-51
2023/08/22 02:42:34;;;;;;;8.02;4.50;;;;;;;17.90;99.40;101929.25;5102299;28;20059;-51
2023/08/22 02:44:59;;;;;;;7.78;5.25;;;;;;;17.85;99.37;101927.91;5104577;28;20509;-52
2023/08/22 02:47:25;;;;;;;7.93;4.65;;;;;;;17.86;99.64;101933.16;5101956;28;20427;-51
2023/08/22 02:49:50;;;;;;;7.22;4.80;;;;;;;17.85;99.50;101935.97;5100885;28;20547;-51
2023/08/22 02:52:15;;;;;;;9.70;5.60;;;;;;;17.82;98.99;101930.88;5102158;28;20378;-51
2023/08/22 02:54:41;;;;;;;6.90;4.97;;;;;;;17.79;99.73;101931.19;5093676;28;20287;-51
2023/08/22 02:57:07;;;;;;;7.40;5.28;;;;;;;17.79;100.00;101928.50;5100919;28;20035;-51
2023/08/22 02:59:33;;;;;;;7.97;4.97;;;;;;;17.78;100.00;101932.16;5103537;28;20016;-51
2023/08/22 03:01:58;;;;;;;7.20;4.60;;;;;;;17.77;100.00;101928.63;5101932;28;20385;-53
2023/08/22 03:04:23;;;;;;;6.00;4.38;;;;;;;17.74;99.73;101932.44;5100753;28;20458;-52
2023/08/22 03:06:49;;;;;;;7.07;4.95;;;;;;;17.71;100.00;101934.56;5101660;27;20086;-52
2023/08/22 03:09:14;;;;;;;5.13;4.63;;;;;;;17.72;99.97;101930.88;5098645;28;20477;-52
2023/08/22 03:11:39;;;;;;;8.57;5.28;;;;;;;17.71;100.00;101938.06;5101404;28;20047;-52
2023/08/22 03:14:05;;;;;;;10.13;5.60;;;;;;;17.70;100.00;101936.41;5097822;28;20028;-53
2023/08/22 03:16:30;;;;;;;8.02;5.10;;;;;;;17.66;99.26;101937.63;5099088;28;20285;-53
2023/08/22 03:18:57;;;;;;;8.50;5.82;;;;;;;17.62;99.78;101943.41;5102019;28;20068;-52
2023/08/22 03:21:23;;;;;;;8.35;5.22;;;;;;;17.61;100.00;101934.53;5102221;28;20465;-54
2023/08/22 03:23:48;;;;;;;9.07;5.70;;;;;;;17.53;100.00;101931.66;5100857;28;20035;-55
2023/08/22 03:26:13;;;;;;;10.77;5.68;;;;;;;17.55;100.00;101927.00;5102667;28;20135;-53
2023/08/22 03:28:39;;;;;;;9.38;5.82;;;;;;;17.48;100.00;101926.69;5098101;28;20899;-52
2023/08/22 03:31:05;;;;;;;10.43;5.90;;;;;;;17.49;100.00;101925.72;5102064;28;20024;-52
2023/08/22 03:33:32;;;;;;;9.65;5.63;;;;;;;17.45;100.00;101929.66;5097597;28;20108;-52
2023/08/22 03:35:58;;;;;;;8.05;5.72;;;;;;;17.46;100.00;101941.25;5099991;28;20541;-52
2023/08/22 03:38:24;;;;;;;8.15;5.65;;;;;;;17.46;100.00;101935.88;5103182;28;20623;-52
2023/08/22 03:40:51;;;;;;;9.45;5.70;;;;;;;17.34;100.00;101913.66;5102177;28;20027;-52
2023/08/22 03:43:18;;;;;;;8.75;5.80;;;;;;;17.37;100.00;101935.72;5104284;28;20021;-52
2023/08/22 03:45:45;;;;;;;13.07;6.32;;;;;;;17.36;100.00;101928.63;5100878;28;20027;-51
2023/08/22 03:48:10;;;;;;;8.82;5.63;;;;;;;17.32;100.00;101927.22;5102730;28;20542;-51
2023/08/22 03:50:38;;;;;;;10.30;5.82;;;;;;;17.28;100.00;101927.63;5100429;28;20111;-52
2023/08/22 03:53:04;;;;;;;8.40;6.05;;;;;;;17.29;100.00;101935.53;5099922;28;20484;-51
2023/08/22 03:55:29;;;;;;;9.00;5.50;;;;;;;17.27;100.00;101932.16;5098777;28;20028;-51
2023/08/22 03:57:54;;;;;;;9.75;5.75;;;;;;;17.27;100.00;101921.41;5099194;28;20554;-50
2023/08/22 04:00:20;;;;;;;8.75;5.25;;;;;;;17.25;100.00;101927.88;5102022;28;20024;-51
2023/08/22 04:02:46;;;;;;;10.98;5.60;;;;;;;17.19;100.00;101927.44;5100774;28;20036;-51
2023/08/22 04:05:11;;;;;;;9.93;5.50;;;;;;;17.15;100.00;101931.41;5100401;28;20067;-51
2023/08/22 04:07:36;;;;;;;6.78;5.40;;;;;;;17.14;100.00;101926.16;5096339;28;20067;-52
2023/08/22 04:10:02;;;;;;;7.20;5.53;;;;;;;17.05;100.00;101925.09;5100404;28;20021;-52
2023/08/22 04:12:27;;;;;;;8.88;5.78;;;;;;;17.04;100.00;101923.41;5102903;28;20335;-51
2023/08/22 04:14:53;;;;;;;9.85;5.55;;;;;;;17.01;100.00;101929.06;5103725;28;20059;-52
2023/08/22 04:17:18;;;;;;;7.65;5.32;;;;;;;16.94;100.00;101919.84;5101842;28;20114;-52
2023/08/22 04:19:43;;;;;;;9.02;5.05;;;;;;;16.95;100.00;101919.72;5100428;28;20485;-51
2023/08/22 04:22:09;;;;;;;11.25;6.57;;;;;;;16.95;100.00;101926.88;5104567;28;20058;-53
2023/08/22 04:24:34;;;;;;;9.98;5.85;;;;;;;16.90;100.00;101924.59;5100878;28;20058;-52
2023/08/22 04:26:59;;;;;;;8.88;6.40;;;;;;;16.90;100.00;101918.38;5100944;28;20445;-51
2023/08/22 04:29:25;;;;;;;9.90;6.43;;;;;;;16.86;100.00;101914.28;5094219;28;20426;-54
2023/08/22 04:31:50;;;;;;;10.05;7.05;;;;;;;16.83;100.00;101921.56;5098810;28;20020;-52
2023/08/22 04:34:16;;;;;;;8.93;6.78;;;;;;;16.82;100.00;101914.50;5098847;28;20020;-51
2023/08/22 04:36:41;;;;;;;10.80;6.90;;;;;;;16.83;100.00;101920.72;5100047;28;20038;-51
2023/08/22 04:39:06;;;;;;;9.57;7.00;;;;;;;16.83;100.00;101918.03;5105377;28;20443;-51
2023/08/22 04:41:32;;;;;;;11.77;7.00;;;;;;;16.81;100.00;101920.84;5101541;28;20421;-52
2023/08/22 04:43:57;;;;;;;10.07;7.13;;;;;;;16.81;100.00;101922.69;5106216;28;20040;-51
2023/08/22 04:46:23;;;;;;;11.40;7.25;;;;;;;16.72;100.00;101910.06;5103982;28;20039;-52
2023/08/22 04:48:48;;;;;;;10.90;7.70;;;;;;;16.75;100.00;101924.09;5103328;28;20051;-52
2023/08/22 04:51:14;;;;;;;15.35;7.93;;;;;;;16.70;100.00;101918.22;5103445;28;20097;-52
2023/08/22 04:53:39;;;;;;;14.07;8.10;;;;;;;16.69;100.00;101929.97;5103578;28;20020;-55
2023/08/22 04:56:05;;;;;;;10.73;7.65;;;;;;;16.69;100.00;101931.81;5102124;28;20020;-52
2023/08/22 04:58:30;;;;;;;9.55;7.43;;;;;;;16.69;100.00;101929.97;5105325;28;20114;-51
2023/08/22 05:00:56;;;;;;;9.48;6.72;;;;;;;16.65;100.00;101924.00;5103249;28;20027;-53
2023/08/22 05:03:22;;;;;;;12.60;7.63;;;;;;;16.69;100.00;101935.31;5101657;28;20020;-51
2023/08/22 05:05:48;;;;;;;8.63;7.25;;;;;;;16.69;100.00;101929.97;5100218;28;20385;-51
2023/08/22 05:08:13;;;;;;;14.85;8.05;;;;;;;16.65;100.00;101932.06;5101337;28;20028;-52
2023/08/22 05:10:38;;;;;;;10.48;7.55;;;;;;;16.68;100.00;101932.78;5101206;28;20047;-51
2023/08/22 05:13:04;;;;;;;11.57;7.82;;;;;;;16.67;100.00;101928.38;5099448;28;20099;-51
2023/08/22 05:15:29;;;;;;;9.40;7.50;;;;;;;16.63;100.00;101935.84;5104139;28;20024;-51
2023/08/22 05:17:54;;;;;;;11.32;8.23;;;;;;;16.63;100.00;101931.31;5098144;28;20043;-51
2023/08/22 05:20:20;;;;;;;11.45;8.27;;;;;;;16.66;100.00;101935.59;5099606;28;20026;-50
2023/08/22 05:22:45;;;;;;;16.92;9.55;;;;;;;16.66;100.00;101924.84;5103438;28;20024;-52
2023/08/22 05:25:12;;;;;;;15.70;9.43;;;;;;;16.66;100.00;101927.53;5100376;28;20031;-52
2023/08/22 05:27:37;;;;;;;15.95;8.52;;;;;;;16.68;100.00;101922.88;5099995;28;20032;-53
2023/08/22 05:30:05;;;;;;;11.45;8.45;;;;;;;16.71;100.00;101928.00;5102173;28;20396;-53
2023/08/22 05:32:30;;;;;;;12.55;9.40;;;;;;;16.69;100.00;101927.28;5104338;28;20020;-52
2023/08/22 05:34:55;;;;;;;13.32;9.60;;;;;;;16.72;100.00;101916.28;5100921;28;20359;-52
2023/08/22 05:37:21;;;;;;;15.05;9.18;;;;;;;16.76;100.00;101922.25;5100518;28;20016;-53
2023/08/22 05:39:46;;;;;;;16.65;9.60;;;;;;;16.78;100.00;101929.16;5103029;28;20058;-55
2023/08/22 05:42:11;;;;;;;14.25;8.60;;;;;;;16.80;100.00;101924.53;5099933;28;20035;-52
2023/08/22 05:44:37;;;;;;;14.98;9.02;;;;;;;16.81;100.00;101912.81;5102065;28;20020;-54
2023/08/22 05:47:04;;;;;;;14.38;8.93;;;;;;;16.88;100.00;101917.69;5096496;28;20121;-51
2023/08/22 05:49:30;;;;;;;16.50;10.00;;;;;;;16.89;100.00;101914.88;5088084;28;20390;-53
2023/08/22 05:52:05;;;;;;;14.60;9.13;;;;;;;16.92;100.00;101925.34;5096689;28;20028;-54
2023/08/22 05:54:31;;;;;;;12.15;9.18;;;;;;;16.96;100.00;101934.81;5100032;28;20031;-52
2023/08/22 05:56:56;;;;;;;15.70;9.50;;;;;;;16.96;100.00;101934.81;5101513;28;20436;-54
2023/08/22 05:59:22;;;;;;;10.60;9.52;;;;;;;17.00;100.00;101938.06;5099912;28;20077;-51
2023/08/22 06:01:48;;;;;;;17.00;9.60;;;;;;;17.02;100.00;101926.25;5102499;28;20102;-52
2023/08/22 06:04:13;;;;;;;15.00;9.80;;;;;;;17.06;100.00;101932.19;5095688;28;20127;-51
2023/08/22 06:06:38;;;;;;;15.20;9.40;;;;;;;17.12;100.00;101942.41;5101021;28;20195;-51
2023/08/22 06:09:04;;;;;;;14.88;9.00;;;;;;;17.15;100.00;101950.19;5102425;28;20024;-53
2023/08/22 06:11:30;;;;;;;13.93;8.95;;;;;;;17.18;100.00;101944.53;5101299;28;20024;-50
2023/08/22 06:13:56;;;;;;;16.42;9.07;;;;;;;17.22;100.00;101939.75;5100071;28;20042;-50
2023/08/22 06:16:21;;;;;;;16.30;9.52;;;;;;;17.27;100.00;101942.88;5090313;28;20058;-52
2023/08/22 06:18:46;;;;;;;13.05;9.52;;;;;;;17.30;100.00;101941.75;5102229;28;20158;-50
2023/08/22 06:21:12;;;;;;;12.52;9.30;;;;;;;17.35;100.00;101940.38;5098951;28;20910;-50
2023/08/22 06:23:37;;;;;;;12.77;8.77;;;;;;;17.42;100.00;101943.38;5103753;28;20028;-51
2023/08/22 06:26:02;;;;;;;12.02;8.75;;;;;;;17.46;100.00;101944.78;5107567;27;20104;-51
2023/08/22 06:28:27;;;;;;;17.83;10.88;;;;;;;17.53;100.00;101937.03;5099332;28;20488;-51
2023/08/22 06:30:53;;;;;;;13.52;8.73;;;;;;;17.59;100.00;101941.03;5100130;28;20405;-50
2023/08/22 06:33:18;;;;;;;14.55;9.02;;;;;;;17.64;100.00;101938.78;5098216;28;20062;-50
2023/08/22 06:35:49;;;;;;;13.20;8.55;;;;;;;17.72;100.00;101938.94;5091289;28;20427;-51
2023/08/22 06:38:14;;;;;;;13.80;8.82;;;;;;;17.79;100.00;101941.94;5093716;28;20019;-49
2023/08/22 06:40:40;;;;;;;10.27;7.53;;;;;;;17.86;100.00;101951.13;5097843;27;20439;-50
2023/08/22 06:43:05;;;;;;;12.30;8.00;;;;;;;17.93;100.00;101950.44;5101731;28;20482;-50
2023/08/22 06:45:30;;;;;;;14.00;8.10;;;;;;;17.98;100.00;101949.19;5095552;28;20020;-50
2023/08/22 06:47:55;;;;;;;11.55;7.70;;;;;;;18.06;100.00;101952.88;5103008;28;20114;-50
2023/08/22 06:50:22;;;;;;;11.85;7.20;;;;;;;18.12;100.00;101962.25;5096975;28;20040;-50
2023/08/22 06:52:47;;;;;;;10.38;7.30;;;;;;;18.22;100.00;101960.41;5098795;28;20035;-50
2023/08/22 06:55:13;;;;;;;11.70;7.43;;;;;;;18.35;100.00;101964.66;5102383;28;20024;-50
2023/08/22 06:57:38;;;;;;;9.02;6.70;;;;;;;18.47;100.00;101974.31;5100740;28;20500;-50
2023/08/22 07:00:15;;;;;;;9.15;6.68;;;;;;;18.63;100.00;101976.41;5094946;28;20713;-51
2023/08/22 07:02:45;;;;;;;12.52;7.20;;;;;;;18.79;100.00;101979.34;5099132;27;20056;-50
2023/08/22 07:05:12;;;;;;;14.48;6.35;;;;;;;19.02;99.14;101976.38;5098988;28;20024;-51
2023/08/22 07:07:38;;;;;;;9.85;6.53;;;;;;;19.38;98.41;101976.53;5102315;27;20024;-51
2023/08/22 07:10:09;;;;;;;7.60;5.93;;;;;;;19.69;96.90;101984.34;5099660;28;20111;-51
2023/08/22 07:12:35;;;;;;;8.48;6.38;;;;;;;19.99;94.06;101977.81;5097044;28;20024;-50
2023/08/22 07:15:00;;;;;;;8.48;5.78;;;;;;;20.31;92.86;101988.09;5101182;28;20032;-52
2023/08/22 07:17:26;;;;;;;6.50;4.50;;;;;;;20.61;88.16;101995.97;5102854;28;20024;-52
2023/08/22 07:19:51;;;;;;;5.45;3.97;;;;;;;20.92;84.75;101990.13;5100613;28;20032;-53
2023/08/22 07:22:17;;;;;;;7.88;3.42;;;;;;;21.13;82.10;101995.19;5101023;28;20104;-52
2023/08/22 07:24:42;;;;;;;5.68;3.47;;;;;;;21.32;79.53;101989.56;5097893;28;20419;-53
2023/08/22 07:27:10;;;;;;;6.18;3.90;;;;;;;21.54;79.65;101992.75;5098698;28;20020;-52
2023/08/22 07:29:35;;;;;;;9.52;4.70;;;;;;;21.79;75.91;101997.25;5098483;28;20039;-52
2023/08/22 07:32:01;;;;;;;7.75;4.35;;;;;;;22.07;77.37;101990.75;5098964;28;20028;-55
2023/08/22 07:34:26;;;;;;;7.07;4.88;;;;;;;22.32;76.57;101984.38;5103143;28;20031;-54
2023/08/22 07:36:52;;;;;;;9.32;5.55;;;;;;;22.65;75.55;101981.69;5098739;28;20477;-53
2023/08/22 07:39:18;;;;;;;8.65;5.43;;;;;;;22.96;74.03;101977.44;5100760;28;20085;-55
2023/08/22 07:41:44;;;;;;;13.25;5.93;;;;;;;23.22;72.91;101988.09;5101303;28;20028;-53
2023/08/22 07:44:09;;;;;;;10.40;5.47;;;;;;;23.62;71.03;101983.53;5091265;28;20030;-55
2023/08/22 07:46:35;;;;;;;8.40;5.13;;;;;;;23.75;70.37;101988.41;5097611;28;20055;-55
2023/08/22 07:49:00;;;;;;;9.40;5.15;;;;;;;23.85;69.43;101989.06;5096572;28;20052;-52
2023/08/22 07:51:25;;;;;;;10.10;5.55;;;;;;;23.98;68.86;101985.75;5098173;28;20020;-52
2023/08/22 07:53:52;;;;;;;11.38;6.43;;;;;;;23.94;67.77;101987.13;5101307;28;20114;-52
2023/08/22 07:56:17;;;;;;;10.90;6.30;;;;;;;23.92;66.26;101998.16;5092949;28;20148;-52
2023/08/22 07:58:43;;;;;;;9.90;6.18;;;;;;;23.99;68.25;101990.16;5096586;28;20037;-51
2023/08/22 08:01:09;;;;;;;9.82;5.88;;;;;;;24.04;67.34;101990.47;5097085;28;20081;-54
2023/08/22 08:03:34;;;;;;;11.10;6.00;;;;;;;23.95;66.73;101986.13;5099981;28;20366;-55
2023/08/22 08:05:59;;;;;;;10.38;5.82;;;;;;;23.97;66.08;101993.03;5097476;28;20052;-53
2023/08/22 08:08:25;;;;;;;14.38;5.88;;;;;;;23.99;65.16;102001.00;5095229;28;20362;-55
2023/08/22 08:10:50;;;;;;;11.77;5.78;;;;;;;23.95;66.42;101988.84;5098101;28;20377;-55
2023/08/22 08:13:15;;;;;;;12.90;5.43;;;;;;;24.00;66.18;102002.72;5106920;28;20389;-53
2023/08/22 08:15:41;;;;;;;8.75;5.43;;;;;;;24.05;66.40;101999.44;5099253;28;20298;-54
2023/08/22 08:18:06;;;;;;;10.55;5.05;;;;;;;24.04;67.47;102001.31;5102555;28;20031;-55
2023/08/22 08:20:32;;;;;;;10.65;4.82;;;;;;;24.14;66.04;102001.94;5106068;28;20099;-56
2023/08/22 08:22:57;;;;;;;9.27;4.80;;;;;;;24.08;65.40;102010.81;5102604;28;20043;-56
2023/08/22 08:25:23;;;;;;;9.48;4.68;;;;;;;24.07;64.63;102009.09;5103437;28;20035;-56
2023/08/22 08:27:49;;;;;;;8.82;4.68;;;;;;;24.01;64.64;102004.38;5095594;28;20030;-56
2023/08/22 08:30:14;;;;;;;10.45;5.20;;;;;;;23.93;65.81;102007.13;5102426;28;20038;-56
2023/08/22 08:32:40;;;;;;;8.98;4.32;;;;;;;24.08;65.98;102007.22;5100646;27;20024;-53
2023/08/22 08:35:06;;;;;;;9.93;4.15;;;;;;;24.09;66.97;102014.34;5104953;27;20547;-57
2023/08/22 08:37:32;;;;;;;10.32;5.00;;;;;;;24.15;65.38;102003.63;5103222;27;20157;-55
2023/08/22 08:39:57;;;;;;;13.27;4.20;;;;;;;24.23;65.38;102007.31;5103220;28;20470;-56
2023/08/22 08:42:24;;;;;;;12.93;4.78;;;;;;;24.15;63.94;102003.63;5103518;27;20077;-56
2023/08/22 08:44:49;;;;;;;9.13;4.50;;;;;;;24.29;66.56;101995.75;5100135;28;20020;-56
2023/08/22 08:47:15;;;;;;;7.90;4.20;;;;;;;24.32;64.73;101992.66;5102566;28;20534;-56
2023/08/22 08:49:41;;;;;;;10.57;4.80;;;;;;;24.35;65.96;101993.16;5104093;28;20052;-56
2023/08/22 08:52:08;;;;;;;9.73;3.88;;;;;;;24.45;64.53;101994.75;5104104;28;20029;-55
2023/08/22 08:54:35;;;;;;;14.05;3.78;;;;;;;24.50;66.25;101993.19;5099640;28;20498;-54
2023/08/22 08:57:01;;;;;;;8.55;4.13;;;;;;;24.53;66.22;101997.41;5102457;28;20042;-56
2023/08/22 08:59:27;;;;;;;10.43;4.72;;;;;;;24.71;66.18;102003.44;5103367;27;20027;-52
2023/08/22 09:01:53;;;;;;;10.27;4.25;;;;;;;24.77;65.81;101998.28;5106158;28;20019;-52
2023/08/22 09:04:19;;;;;;;11.55;4.80;;;;;;;24.80;64.80;102019.63;5104430;27;20046;-52
2023/08/22 09:06:46;;;;;;;11.82;4.85;;;;;;;24.80;65.53;102015.06;5108110;28;20029;-52
2023/08/22 09:09:12;;;;;;;9.75;5.72;;;;;;;24.87;63.92;102004.28;5098603;28;20114;-51
2023/08/22 09:11:46;;;;;;;14.95;5.70;;;;;;;24.93;64.95;101996.25;5103290;28;20073;-53
2023/08/22 09:14:12;;;;;;;9.57;5.38;;;;;;;24.90;65.05;101996.63;5100938;28;20024;-53
2023/08/22 09:16:37;;;;;;;13.18;6.93;;;;;;;24.98;62.41;102016.59;5102730;28;20084;-53
2023/08/22 09:19:04;;;;;;;12.70;6.38;;;;;;;25.01;62.40;102008.91;5096372;28;20020;-53
2023/08/22 09:21:31;;;;;;;12.23;6.65;;;;;;;25.08;63.33;102011.72;5107335;28;20024;-52
2023/08/22 09:24:09;;;;;;;11.05;6.65;;;;;;;25.18;64.36;102009.59;5105976;28;20063;-51
2023/08/22 09:26:36;;;;;;;14.77;6.55;;;;;;;24.98;64.09;102012.00;5106332;28;20110;-51
2023/08/22 09:29:05;;;;;;;14.43;7.38;;;;;;;25.10;64.06;102013.22;5102707;28;20525;-52
2023/08/22 09:31:31;;;;;;;;;;;;;;;25.29;64.81;102009.16;5099200;28;20482;-54
2023/08/22 09:33:56;;;;;;;18.73;7.70;;;;;;;25.06;63.34;102003.78;5096466;28;19914;-56
2023/08/22 09:36:22;;;;;;;13.52;6.55;;;;;;;25.20;63.04;102003.97;5106524;28;20020;-51
2023/08/22 09:38:54;;;;;;;16.33;7.18;;;;;;;25.34;63.52;102005.03;5101607;28;20051;-53
2023/08/22 09:41:24;;;;;;;15.07;6.28;;;;;;;25.57;62.81;102007.66;5094832;28;20257;-50
2023/08/22 09:43:54;;;;;;;13.00;6.47;;;;;;;25.85;61.69;102013.25;5096639;28;20030;-51
2023/08/22 09:46:20;;;;;;;14.00;5.10;;;;;;;26.17;60.95;102017.41;5101755;28;20035;-57
2023/08/22 09:48:48;;;;;;;13.73;5.07;;;;;;;26.20;59.67;102014.31;5097031;28;20058;-50
2023/08/22 09:51:19;;;;;;;9.73;5.13;;;;;;;26.24;59.49;102006.59;5103801;28;20024;-50
2023/08/22 09:53:49;;;;;;;12.20;5.63;;;;;;;26.32;57.81;101998.28;5100489;28;20330;-49
2023/08/22 09:56:14;;;;;;;9.30;4.78;;;;;;;26.50;57.10;102008.75;5096396;28;20028;-51
2023/08/22 09:58:41;;;;;;;8.95;4.50;;;;;;;26.45;55.54;102010.38;5098148;28;20069;-50
2023/08/22 10:01:07;;;;;;;10.73;4.20;;;;;;;26.33;54.01;102012.75;5097890;28;20016;-52
2023/08/22 10:03:34;;;;;;;7.53;3.47;;;;;;;26.30;55.85;102013.16;5101202;28;20462;-53
2023/08/22 10:06:01;;;;;;;5.45;2.53;;;;;;;26.48;55.92;102004.50;5094596;28;20028;-53
2023/08/22 10:08:26;;;;;;;6.40;3.25;;;;;;;26.50;55.38;102005.19;5102263;28;20024;-52
2023/08/22 10:10:52;;;;;;;8.85;4.00;;;;;;;26.48;53.94;102008.09;5097724;28;20027;-53
2023/08/22 10:13:21;;;;;;;8.50;3.20;;;;;;;26.47;53.47;102006.41;5095098;28;20024;-51
2023/08/22 10:15:47;;;;;;;8.43;3.00;;;;;;;26.63;53.64;102005.34;5094717;28;20081;-54
2023/08/22 10:18:13;;;;;;;7.47;3.33;;;;;;;26.76;52.15;102000.00;5100089;28;20070;-53
2023/08/22 10:20:40;;;;;;;6.18;3.30;;;;;;;26.96;51.16;101993.81;5099605;28;20052;-52
2023/08/22 10:23:07;;;;;;;7.38;2.90;;;;;;;27.14;52.26;101985.97;5098990;28;20110;-53
2023/08/22 10:25:47;;;;;;;8.88;3.28;;;;;;;27.27;52.96;101996.13;5097475;28;20356;-51
2023/08/22 10:28:12;;;;;;;5.82;2.90;;;;;;;27.35;52.21;101999.81;5098713;28;20032;-53
2023/08/22 10:31:04;;;;;;;6.15;2.95;;;;;;;27.51;53.01;102002.16;5097819;28;20074;-54
2023/08/22 10:33:29;;;;;;;10.32;3.45;;;;;;;27.48;50.97;101994.41;5097123;28;20039;-51
2023/08/22 10:36:15;;;;;;;6.40;2.80;;;;;;;27.49;52.01;101999.63;5100829;28;20389;-52
2023/08/22 10:38:55;;;;;;;5.97;2.30;;;;;;;27.69;50.80;101994.31;5097657;28;20323;-54
2023/08/22 10:41:43;;;;;;;6.78;2.40;;;;;;;27.87;48.98;101981.97;5092845;28;20043;-52
2023/08/22 10:44:17;;;;;;;5.03;2.40;;;;;;;28.35;50.88;101981.03;5099584;28;20468;-55
2023/08/22 10:47:07;;;;;;;6.00;2.53;;;;;;;28.57;50.47;101981.72;5103109;28;20023;-52
2023/08/22 10:49:34;;;;;;;6.20;2.75;;;;;;;28.62;46.46;101981.09;5099726;28;20051;-52
2023/08/22 10:52:07;;;;;;;6.70;2.30;;;;;;;28.94;49.41;101976.63;5104271;28;20020;-53
2023/08/22 10:54:53;;;;;;;5.60;2.33;;;;;;;28.96;46.82;101983.59;5100918;28;20051;-55
2023/08/22 10:57:19;;;;;;;4.70;1.95;;;;;;;29.30;46.49;101978.91;5083692;28;20401;-51
2023/08/22 10:59:59;;;;;;;3.97;2.10;;;;;;;29.60;47.38;101986.59;5099354;28;20107;-53
2023/08/22 11:02:29;;;;;;;5.55;1.58;;;;;;;29.41;44.35;101985.63;5096712;28;20060;-51
2023/08/22 11:05:00;;;;;;;4.68;1.80;;;;;;;29.29;45.34;101982.69;5097670;28;20489;-53
2023/08/22 11:07:27;;;;;;;3.22;1.48;;;;;;;29.41;42.70;101982.03;5098316;28;20043;-55
2023/08/22 11:09:55;;;;;;;3.67;1.42;;;;;;;29.39;42.84;101975.94;5095775;28;20036;-54
2023/08/22 11:12:22;;;;;;;1.38;1.13;;;;;;;29.32;39.52;101976.78;5100741;28;20059;-52
2023/08/22 11:14:52;;;;;;;4.45;1.20;;;;;;;29.24;41.52;101982.50;5099575;28;20031;-51
2023/08/22 11:17:20;;;;;;;2.35;0.88;;;;;;;29.21;39.55;101985.69;5093610;28;20453;-54